Time;durP1;ratioP1;P1;durP2;ratioP2;P2;SDS_P1;SDS_P2;PMS_P1;PMS_P2;Temp;Humidity;BMP_temperature;BMP_pressure;BME280_temperature;BME280_humidity;BME280_pressure;Samples;Min_cycle;Max_cycle;Signal;HPM_P1;HPM_P2
2021/08/17 06:08:15;;;;;;;13.53;6.10;;;;;;;40.61;28.09;100910.56;1750614;81;21152;-70
2021/08/17 06:10:49;;;;;;;8.95;5.62;;;;;;;41.18;26.84;100907.17;1765315;81;21323;-69
2021/08/17 06:13:32;;;;;;;7.67;4.83;;;;;;;41.43;26.59;100909.91;1720385;82;21186;-71
2021/08/17 06:16:07;;;;;;;9.38;4.70;;;;;;;41.87;25.55;100911.41;1751677;82;21706;-68
2021/08/17 06:18:41;;;;;;;7.20;4.87;;;;;;;42.38;25.03;100914.53;1746121;82;22095;-70
2021/08/17 06:21:15;;;;;;;9.50;5.72;;;;;;;42.93;24.26;100902.54;1720401;83;21174;-70
2021/08/17 06:23:48;;;;;;;8.38;4.85;;;;;;;43.38;23.81;100907.58;1751712;82;21179;-68
2021/08/17 06:26:21;;;;;;;10.98;5.15;;;;;;;43.72;23.16;100903.11;1743863;82;21623;-68
2021/08/17 06:28:55;;;;;;;13.18;4.72;;;;;;;44.06;22.81;100899.92;1720093;83;21289;-67
2021/08/17 06:34:54;;;;;;;5.97;4.58;;;;;;;44.79;21.94;100903.44;1731842;82;21293;-70
2021/08/17 06:37:28;;;;;;;12.23;4.70;;;;;;;45.08;21.11;100903.71;1735164;82;21250;-70
2021/08/17 06:40:02;;;;;;;6.17;4.58;;;;;;;45.36;20.71;100896.80;1701030;84;21320;-68
2021/08/17 06:42:36;;;;;;;11.10;4.95;;;;;;;45.52;20.29;100899.61;1734002;82;22088;-70
2021/08/17 06:45:10;;;;;;;5.47;3.95;;;;;;;45.61;20.46;100901.08;1702887;84;21441;-71
2021/08/17 06:51:53;;;;;;;6.55;4.15;;;;;;;45.70;19.67;100903.66;1701658;83;21142;-72
2021/08/17 06:54:27;;;;;;;7.90;3.83;;;;;;;45.93;19.87;100903.27;1739532;82;21186;-70
2021/08/17 06:57:00;;;;;;;6.67;3.90;;;;;;;46.01;19.69;100900.34;1714754;83;21199;-71
2021/08/17 06:59:34;;;;;;;6.00;3.83;;;;;;;46.14;19.31;100898.28;1713383;83;21197;-71
2021/08/17 07:02:08;;;;;;;8.25;3.77;;;;;;;46.39;19.06;100903.02;1715526;83;21189;-72
2021/08/17 07:04:42;;;;;;;4.97;3.45;;;;;;;46.66;18.38;100897.90;1714354;83;21212;-74
2021/08/17 07:07:16;;;;;;;9.63;3.90;;;;;;;46.85;18.09;100892.39;1713386;83;21215;-70
2021/08/17 07:09:49;;;;;;;3.92;3.50;;;;;;;47.13;17.84;100895.77;1713163;83;21212;-70
2021/08/17 07:12:24;;;;;;;6.60;3.70;;;;;;;47.35;17.67;100890.03;1711668;83;21215;-69
2021/08/17 07:14:57;;;;;;;4.85;3.50;;;;;;;47.73;17.19;100892.73;1713672;83;21255;-71
2021/08/17 07:17:30;;;;;;;13.05;6.22;;;;;;;47.95;16.80;100896.69;1716788;83;21192;-71
2021/08/17 07:20:05;;;;;;;4.35;3.80;;;;;;;48.10;16.77;100892.16;1739303;82;21239;-71
2021/08/17 07:22:39;;;;;;;12.68;5.33;;;;;;;48.24;16.81;100888.23;1701015;84;21225;-75
2021/08/17 07:25:13;;;;;;;5.65;3.92;;;;;;;48.32;16.69;100892.11;1735179;82;21283;-74
2021/08/17 07:27:46;;;;;;;5.80;3.80;;;;;;;48.44;16.43;100889.72;1714910;83;21977;-70
2021/08/17 07:30:19;;;;;;;4.72;3.72;;;;;;;48.52;16.16;100888.07;1736189;82;21255;-72
2021/08/17 07:32:52;;;;;;;5.28;3.50;;;;;;;48.42;16.08;100894.25;1735959;82;21541;-71
2021/08/17 07:35:26;;;;;;;5.30;3.70;;;;;;;48.27;16.32;100893.85;1731094;82;21378;-70
2021/08/17 07:42:09;;;;;;;7.40;3.52;;;;;;;48.03;16.46;100887.89;1733821;83;21451;-74
2021/08/17 07:44:42;;;;;;;6.62;3.60;;;;;;;47.86;17.05;100885.85;1732131;83;21350;-70
2021/08/17 07:47:16;;;;;;;9.68;4.25;;;;;;;48.01;16.72;100884.08;1729066;83;21314;-70
2021/08/17 07:49:49;;;;;;;4.33;3.62;;;;;;;48.26;16.38;100883.09;1728002;83;21431;-70
2021/08/17 07:52:25;;;;;;;6.12;3.37;;;;;;;48.35;16.37;100881.65;1728659;83;21346;-70
2021/08/17 07:54:58;;;;;;;9.00;3.95;;;;;;;48.49;16.15;100890.78;1730219;83;21322;-71
2021/08/17 07:57:31;;;;;;;4.17;3.58;;;;;;;48.60;15.92;100881.44;1729442;83;21236;-68
2021/08/17 08:00:07;;;;;;;4.33;3.22;;;;;;;48.61;15.82;100884.41;1728003;83;21368;-68
2021/08/17 08:02:41;;;;;;;4.70;3.62;;;;;;;48.66;15.56;100881.89;1727493;83;21188;-69
2021/08/17 08:05:14;;;;;;;5.00;3.72;;;;;;;48.76;15.36;100880.42;1727592;83;21644;-67
2021/08/17 08:07:48;;;;;;;11.03;3.52;;;;;;;48.72;15.44;100879.59;1734856;83;22083;-69
2021/08/17 08:10:21;;;;;;;6.62;3.72;;;;;;;48.71;15.95;100876.58;1727548;83;21338;-70
2021/08/17 08:17:04;;;;;;;8.28;3.40;;;;;;;48.70;15.19;100873.02;1731016;83;21283;-65
2021/08/17 08:19:38;;;;;;;6.83;3.98;;;;;;;48.60;15.74;100873.69;1727392;83;21255;-67
2021/08/17 08:26:21;;;;;;;5.72;3.80;;;;;;;48.58;15.90;100876.05;1727924;83;21172;-69
2021/08/17 08:28:54;;;;;;;5.33;4.17;;;;;;;48.49;15.72;100869.37;1729434;83;21314;-69
2021/08/17 08:31:29;;;;;;;8.28;4.37;;;;;;;48.43;15.52;100867.27;1734143;83;21227;-69
2021/08/17 08:34:02;;;;;;;6.22;3.90;;;;;;;48.15;15.52;100869.08;1729561;83;21474;-66
2021/08/17 08:36:35;;;;;;;10.98;4.50;;;;;;;47.94;15.63;100863.95;1723443;83;21214;-67
2021/08/17 08:39:09;;;;;;;15.13;5.00;;;;;;;47.72;16.00;100865.36;1723817;83;21259;-71
2021/08/17 08:41:46;;;;;;;5.90;3.80;;;;;;;47.41;16.35;100864.19;1724091;83;21247;-69
2021/08/17 08:44:23;;;;;;;5.83;3.77;;;;;;;46.95;16.79;100861.33;1726998;83;21335;-72
2021/08/17 08:46:58;;;;;;;6.22;4.12;;;;;;;46.57;17.39;100863.50;1724654;83;21318;-72
2021/08/17 08:49:32;;;;;;;8.18;4.40;;;;;;;46.29;17.42;100860.66;1724288;83;21365;-69
2021/08/17 08:52:08;;;;;;;8.25;4.37;;;;;;;45.71;18.00;100862.39;1724191;83;21204;-68
2021/08/17 08:54:43;;;;;;;7.50;3.87;;;;;;;44.64;18.98;100859.19;1726884;83;21314;-71
2021/08/17 08:57:18;;;;;;;5.97;4.00;;;;;;;43.40;20.08;100859.23;1726257;83;21314;-68
2021/08/17 08:59:51;;;;;;;7.87;4.08;;;;;;;42.24;21.32;100856.99;1724026;83;21482;-68
2021/08/17 09:02:30;;;;;;;7.40;3.92;;;;;;;41.27;22.49;100870.87;1724388;83;21310;-69
2021/08/17 09:05:07;;;;;;;10.60;4.35;;;;;;;40.88;23.00;100862.25;1723793;83;21517;-67
2021/08/17 09:07:46;;;;;;;10.80;4.00;;;;;;;41.01;23.37;100861.27;1723940;83;21509;-71
2021/08/17 09:10:27;;;;;;;12.95;4.65;;;;;;;41.54;22.84;100853.44;1722991;83;22004;-70
2021/08/17 09:13:01;;;;;;;8.05;4.90;;;;;;;42.07;22.23;100863.12;1725882;83;22153;-71
2021/08/17 09:15:36;;;;;;;9.43;4.37;;;;;;;42.32;21.89;100860.02;1725180;83;21326;-70
2021/08/17 09:22:25;;;;;;;8.25;4.75;;;;;;;42.02;21.66;100862.74;1724703;83;21141;-69
2021/08/17 09:25:02;;;;;;;7.25;4.72;;;;;;;41.78;22.15;100854.27;1723764;83;21474;-67
2021/08/17 09:31:52;;;;;;;10.90;4.83;;;;;;;41.65;22.16;100854.69;1723858;83;21485;-69
2021/08/17 09:34:34;;;;;;;7.12;4.72;;;;;;;41.04;22.98;100857.87;1726068;83;21318;-70
2021/08/17 09:37:15;;;;;;;7.92;5.08;;;;;;;40.89;23.02;100854.27;1718739;82;21406;-70
2021/08/17 09:39:49;;;;;;;11.68;4.75;;;;;;;40.90;22.85;100844.89;1699063;84;21484;-69
2021/08/17 09:42:26;;;;;;;9.80;5.17;;;;;;;40.92;23.01;100853.04;1730419;83;21189;-69
2021/08/17 09:45:13;;;;;;;11.93;5.30;;;;;;;40.87;23.44;100847.71;1702825;84;21340;-67
2021/08/17 09:47:56;;;;;;;11.70;5.58;;;;;;;40.87;23.64;100842.78;1731060;83;21342;-72
2021/08/17 09:50:37;;;;;;;12.30;5.67;;;;;;;40.79;23.41;100851.25;1698267;84;21311;-67
2021/08/17 09:53:18;;;;;;;13.25;5.28;;;;;;;40.37;24.29;100853.34;1731046;83;21362;-68
2021/08/17 10:00:04;;;;;;;10.80;5.25;;;;;;;39.34;25.19;100847.37;1698515;84;21106;-67
2021/08/17 10:02:43;;;;;;;12.35;5.83;;;;;;;38.79;25.82;100850.08;1731501;83;21582;-69
2021/08/17 10:09:26;;;;;;;10.53;6.15;;;;;;;38.24;26.46;100847.41;1735427;82;22077;-70
2021/08/17 10:12:03;;;;;;;14.07;5.60;;;;;;;37.49;27.63;100854.31;1697152;84;21315;-68
2021/08/17 10:14:37;;;;;;;11.35;6.22;;;;;;;36.95;28.26;100850.25;1729552;83;21188;-68
2021/08/17 10:17:11;;;;;;;11.08;6.22;;;;;;;36.49;28.99;100848.69;1697594;84;21194;-68
2021/08/17 10:19:44;;;;;;;11.28;5.83;;;;;;;36.17;29.77;100849.91;1731011;83;21314;-68
2021/08/17 10:22:17;;;;;;;13.75;6.53;;;;;;;35.95;30.18;100852.31;1648502;84;21238;-68
2021/08/17 10:24:53;;;;;;;11.97;6.15;;;;;;;35.78;30.77;100851.95;1669865;84;21415;-68
2021/08/17 10:27:39;;;;;;;10.08;5.97;;;;;;;35.66;31.00;100845.53;1704807;83;21574;-69
2021/08/17 10:30:25;;;;;;;13.62;6.00;;;;;;;35.65;30.85;100843.11;1730610;83;21322;-72
2021/08/17 10:32:59;;;;;;;8.23;5.60;;;;;;;35.64;30.60;100842.83;1703154;84;21355;-69
2021/08/17 10:35:52;;;;;;;11.63;6.50;;;;;;;35.67;30.39;100841.72;1731312;83;21362;-70
2021/08/17 10:38:31;;;;;;;;;;;;;;;35.69;30.37;100840.06;1716527;81;21207;-72
2021/08/17 10:41:06;;;;;;;11.90;6.08;;;;;;;35.67;30.22;100838.17;1751756;82;20699;-69
2021/08/17 10:43:51;;;;;;;13.45;6.62;;;;;;;35.64;30.84;100836.02;1751680;82;22038;-69
2021/08/17 10:50:34;;;;;;;12.88;6.67;;;;;;;35.41;31.35;100822.61;1751744;82;21231;-70
2021/08/17 10:53:37;;;;;;;8.33;5.42;;;;;;;35.34;31.12;100831.66;1751035;82;21495;-69
2021/08/17 10:56:25;;;;;;;7.20;5.53;;;;;;;35.42;30.39;100827.52;1752344;82;21274;-68
2021/08/17 10:58:59;;;;;;;7.20;5.42;;;;;;;35.43;29.65;100828.58;1752034;82;21298;-68
2021/08/17 11:01:50;;;;;;;13.40;5.70;;;;;;;35.42;29.62;100819.34;1751661;82;21297;-67
2021/08/17 11:04:21;;;;;;;9.45;5.75;;;;;;;35.38;29.95;100823.17;1752006;82;21297;-66
2021/08/17 11:06:58;;;;;;;18.20;5.72;;;;;;;35.37;30.27;100820.20;1751623;82;21314;-67
2021/08/17 11:09:39;;;;;;;8.85;6.03;;;;;;;35.41;30.65;100819.89;1750279;82;21176;-68
2021/08/17 11:12:12;;;;;;;9.45;6.17;;;;;;;35.40;30.54;100817.43;1751599;82;21203;-69
2021/08/17 11:14:48;;;;;;;9.60;6.10;;;;;;;35.34;30.78;100815.33;1751746;82;21302;-67
2021/08/17 11:17:22;;;;;;;7.67;5.47;;;;;;;35.37;30.91;100812.58;1750338;82;22036;-69
2021/08/17 11:24:11;;;;;;;8.23;5.30;;;;;;;35.44;30.39;100808.44;1750596;82;20239;-67
2021/08/17 11:26:52;;;;;;;9.55;6.10;;;;;;;35.43;30.01;100807.34;1728089;82;21341;-67
2021/08/17 11:29:31;;;;;;;11.73;6.40;;;;;;;35.46;29.84;100799.96;1751621;82;21179;-67
2021/08/17 11:32:08;;;;;;;7.33;5.40;;;;;;;35.52;30.15;100804.27;1750533;82;21345;-67
2021/08/17 11:34:42;;;;;;;6.30;5.08;;;;;;;35.58;29.75;100797.70;1751893;82;21907;-66
2021/08/17 11:37:15;;;;;;;9.38;4.87;;;;;;;35.58;29.06;100792.25;1751651;82;21338;-70
2021/08/17 11:39:54;;;;;;;5.10;4.22;;;;;;;35.59;28.96;100789.22;1745249;81;21195;-70
2021/08/17 11:46:36;;;;;;;40.98;26.37;;;;;;;35.34;28.30;100788.10;1746333;82;21407;-67
2021/08/17 11:49:29;;;;;;;9.58;6.85;;;;;;;34.96;28.98;100780.24;1743776;82;21204;-65
2021/08/17 11:52:18;;;;;;;9.05;4.95;;;;;;;34.78;29.20;100782.81;1747257;82;21311;-68
2021/08/17 11:55:04;;;;;;;5.95;4.20;;;;;;;34.50;29.67;100779.72;1744953;82;21976;-67
2021/08/17 11:57:40;;;;;;;5.80;4.53;;;;;;;34.27;29.94;100770.07;1745117;82;21208;-68
2021/08/17 12:00:30;;;;;;;7.40;4.47;;;;;;;34.19;30.21;100768.75;1745084;82;21199;-68
2021/08/17 12:03:08;;;;;;;7.42;4.90;;;;;;;34.23;30.26;100768.98;1743844;82;21211;-66
2021/08/17 12:05:41;;;;;;;6.40;4.75;;;;;;;34.29;29.89;100761.91;1745914;82;21234;-68
2021/08/17 12:08:15;;;;;;;;;;;;;;;34.33;30.12;100762.96;1754648;82;21228;-67
2021/08/17 12:10:47;;;;;;;8.90;4.53;;;;;;;34.40;30.49;100762.10;1720348;82;20693;-72
2021/08/17 12:13:25;;;;;;;6.92;4.65;;;;;;;34.49;30.78;100758.23;1724210;83;22060;-67
2021/08/17 12:15:58;;;;;;;9.73;4.97;;;;;;;34.53;30.58;100758.80;1694281;84;21203;-66
2021/08/17 12:18:33;;;;;;;8.63;4.28;;;;;;;34.60;30.87;100755.76;1723338;83;21518;-66
2021/08/17 12:21:10;;;;;;;6.17;4.72;;;;;;;34.67;31.17;100758.16;1690167;83;21190;-68
2021/08/17 12:23:46;;;;;;;7.78;4.95;;;;;;;34.72;31.18;100751.31;1693736;84;21899;-70
2021/08/17 12:26:25;;;;;;;7.83;4.60;;;;;;;34.78;31.41;100755.61;1724502;83;21334;-67
2021/08/17 12:29:10;;;;;;;7.58;4.12;;;;;;;34.78;30.24;100751.53;1695583;84;21506;-71
2021/08/17 12:31:44;;;;;;;5.70;4.53;;;;;;;34.73;29.97;100749.66;1705224;83;21322;-67
2021/08/17 12:34:18;;;;;;;6.70;4.22;;;;;;;34.69;30.26;100749.16;1695344;84;21365;-67
2021/08/17 12:36:53;;;;;;;7.70;3.70;;;;;;;34.65;29.83;100751.65;1724519;83;21191;-67
2021/08/17 12:43:26;;;;;;;8.43;4.20;;;;;;;34.49;29.89;100751.43;1682381;83;21203;-68
2021/08/17 12:50:10;;;;;;;8.15;4.00;;;;;;;34.33;29.42;100753.45;1741761;82;22001;-67
2021/08/17 12:52:49;;;;;;;6.55;3.70;;;;;;;34.32;29.06;100751.02;1742875;82;21290;-67
2021/08/17 12:55:23;;;;;;;7.97;3.90;;;;;;;34.35;29.23;100749.08;1745870;82;21625;-69
2021/08/17 12:57:57;;;;;;;7.33;3.60;;;;;;;34.38;28.70;100747.16;1746083;82;21302;-70
2021/08/17 13:00:30;;;;;;;5.62;3.90;;;;;;;34.43;28.83;100747.13;1743790;82;21211;-69
2021/08/17 13:03:05;;;;;;;5.08;4.30;;;;;;;34.48;29.03;100745.20;1743086;82;21294;-68
2021/08/17 13:05:44;;;;;;;8.00;4.20;;;;;;;34.53;29.00;100742.48;1741585;82;21326;-69
2021/08/17 13:08:17;;;;;;;4.30;3.75;;;;;;;34.56;28.72;100739.72;1743194;82;21314;-68
2021/08/17 13:10:51;;;;;;;5.65;3.80;;;;;;;34.58;28.65;100744.89;1741510;82;21187;-68
2021/08/17 13:13:24;;;;;;;7.53;3.40;;;;;;;34.56;28.70;100749.23;1748492;80;21287;-67
2021/08/17 13:15:58;;;;;;;7.80;4.72;;;;;;;34.61;28.90;100742.98;1725082;83;21213;-69
2021/08/17 13:18:31;;;;;;;24.75;14.23;;;;;;;34.65;28.67;100741.31;1727774;83;21280;-67
2021/08/17 13:21:06;;;;;;;8.28;5.10;;;;;;;34.63;30.23;100741.61;1695214;84;21522;-67
2021/08/17 13:23:39;;;;;;;27.40;17.40;;;;;;;34.47;30.80;100743.57;1719044;83;21299;-67
2021/08/17 13:26:11;;;;;;;;;;;;;;;34.34;31.15;100743.39;1720217;83;21331;-68
2021/08/17 13:28:45;;;;;;;10.63;5.05;;;;;;;34.27;31.11;100734.73;1718971;83;20214;-65
2021/08/17 13:31:18;;;;;;;5.28;4.22;;;;;;;34.10;31.15;100733.74;1717778;83;21471;-68
2021/08/17 13:33:52;;;;;;;11.70;4.03;;;;;;;33.98;31.12;100730.51;1718974;83;21192;-68
2021/08/17 13:36:26;;;;;;;5.90;4.20;;;;;;;33.91;30.69;100735.44;1718937;83;22053;-68
2021/08/17 13:39:01;;;;;;;12.47;4.37;;;;;;;33.83;30.57;100725.13;1717235;83;21380;-68
2021/08/17 13:41:34;;;;;;;8.90;5.72;;;;;;;33.76;30.29;100728.16;1718841;83;21448;-67
2021/08/17 13:44:07;;;;;;;6.50;4.83;;;;;;;33.65;30.60;100722.47;1718517;83;21579;-66
2021/08/17 13:46:41;;;;;;;9.28;5.20;;;;;;;33.54;30.90;100713.28;1707952;83;21205;-67
2021/08/17 13:49:53;;;;;;;;;;;;;;;33.46;31.83;100710.55;1711528;84;21181;-66
2021/08/17 13:56:35;;;;;;;8.48;5.53;;;;;;;33.39;32.12;100707.89;1707907;84;21224;-67
2021/08/17 13:59:08;;;;;;;;;;;;;;;33.34;31.76;100707.36;1711494;84;21221;-67
2021/08/17 14:01:42;;;;;;;8.98;5.37;;;;;;;33.28;31.77;100705.73;1707887;84;20187;-67
2021/08/17 14:04:15;;;;;;;7.72;4.80;;;;;;;33.21;32.04;100699.23;1709024;84;21229;-66
2021/08/17 14:06:49;;;;;;;6.80;4.30;;;;;;;33.14;32.03;100698.70;1708722;84;21205;-66
2021/08/17 14:09:23;;;;;;;12.45;4.95;;;;;;;33.06;31.97;100700.61;1696334;84;21197;-65
2021/08/17 14:11:56;;;;;;;7.85;4.70;;;;;;;33.00;32.89;100703.04;1711138;84;21201;-65
2021/08/17 14:14:29;;;;;;;6.00;4.78;;;;;;;32.88;32.77;100704.39;1672210;84;21329;-65
2021/08/17 14:17:02;;;;;;;8.83;5.05;;;;;;;32.78;32.74;100707.92;1664550;84;21338;-63
2021/08/17 14:19:36;;;;;;;7.05;4.60;;;;;;;32.70;33.04;100701.67;1677908;84;21255;-65
2021/08/17 14:22:12;;;;;;;6.95;4.72;;;;;;;32.66;33.13;100697.89;1704385;83;21370;-65
2021/08/17 14:24:45;;;;;;;8.80;5.17;;;;;;;32.61;33.41;100692.45;1711091;84;21158;-63
2021/08/17 14:27:19;;;;;;;6.60;4.90;;;;;;;32.57;33.74;100695.45;1709842;84;21201;-64
2021/08/17 14:29:52;;;;;;;27.40;19.60;;;;;;;32.55;34.01;100688.13;1710394;84;21327;-65
2021/08/17 14:32:25;;;;;;;11.75;8.20;;;;;;;32.52;34.16;100680.53;1713535;84;21285;-65
2021/08/17 14:34:58;;;;;;;;;;;;;;;32.47;34.58;100684.02;1661249;84;21168;-63
2021/08/17 14:37:31;;;;;;;77.17;46.85;;;;;;;32.39;34.45;100685.90;1652719;87;20200;-63
2021/08/17 14:40:06;;;;;;;13.43;9.20;;;;;;;32.26;34.66;100688.33;1666517;85;21187;-64
2021/08/17 14:42:39;;;;;;;6.30;5.10;;;;;;;32.18;35.17;100689.66;1667274;84;21167;-65
2021/08/17 14:45:13;;;;;;;11.90;5.50;;;;;;;32.10;34.80;100679.90;1667012;85;21727;-64
2021/08/17 14:47:46;;;;;;;18.32;6.55;;;;;;;31.99;34.95;100682.29;1667424;85;21301;-63
2021/08/17 14:50:20;;;;;;;12.43;6.17;;;;;;;31.88;35.17;100684.14;1665862;85;21227;-64
2021/08/17 14:52:53;;;;;;;54.05;29.30;;;;;;;31.78;35.52;100682.73;1668144;85;21282;-65
2021/08/17 14:55:26;;;;;;;65.78;40.73;;;;;;;31.70;35.62;100685.94;1669686;84;22074;-62
2021/08/17 14:58:00;;;;;;;17.20;10.43;;;;;;;31.63;35.55;100685.38;1667701;84;21295;-64
2021/08/17 15:00:33;;;;;;;17.82;9.30;;;;;;;31.56;35.57;100691.03;1682542;85;21222;-63
2021/08/17 15:03:07;;;;;;;37.55;24.30;;;;;;;31.50;35.72;100685.33;1680260;85;21281;-65
2021/08/17 15:05:40;;;;;;;17.15;9.18;;;;;;;31.46;35.98;100686.09;1667026;86;21223;-64
2021/08/17 15:08:15;;;;;;;9.40;5.83;;;;;;;31.41;36.15;100683.36;1668988;85;22017;-64
2021/08/17 15:10:49;;;;;;;8.83;5.28;;;;;;;31.33;36.59;100686.02;1660082;85;21182;-63
2021/08/17 15:13:23;;;;;;;7.75;4.83;;;;;;;31.28;36.68;100684.09;1682263;85;21628;-64
2021/08/17 15:15:56;;;;;;;7.47;4.60;;;;;;;31.22;36.65;100686.48;1684096;83;21195;-64
2021/08/17 15:18:30;;;;;;;6.25;4.90;;;;;;;31.18;36.68;100684.56;1679332;84;21258;-64
2021/08/17 15:21:03;;;;;;;9.78;5.03;;;;;;;31.11;36.79;100687.50;1668937;86;21286;-66
2021/08/17 15:23:37;;;;;;;8.45;4.50;;;;;;;31.05;36.92;100688.53;1670747;84;21222;-64
2021/08/17 15:26:11;;;;;;;9.43;5.30;;;;;;;30.99;37.28;100689.58;1681170;85;21234;-64
2021/08/17 15:28:44;;;;;;;17.02;7.80;;;;;;;30.93;37.62;100688.45;1682074;85;21718;-64
2021/08/17 15:31:18;;;;;;;10.13;6.40;;;;;;;30.86;38.00;100682.42;1681817;83;21226;-65
2021/08/17 15:33:53;;;;;;;14.47;6.08;;;;;;;30.81;38.31;100683.73;1681465;85;21962;-65
2021/08/17 15:36:26;;;;;;;10.70;5.15;;;;;;;30.73;38.62;100691.78;1680189;85;21517;-65
2021/08/17 15:38:59;;;;;;;13.08;6.00;;;;;;;30.67;38.92;100692.00;1700827;83;21201;-66
2021/08/17 15:41:35;;;;;;;13.98;6.37;;;;;;;30.61;39.14;100685.72;1707449;84;21224;-66
2021/08/17 15:44:09;;;;;;;15.70;9.53;;;;;;;30.53;39.51;100687.00;1689315;84;21323;-65
2021/08/17 15:46:42;;;;;;;26.45;10.48;;;;;;;30.46;39.48;100685.05;1707626;84;21248;-65
2021/08/17 15:49:16;;;;;;;33.63;16.67;;;;;;;30.38;40.01;100684.70;1708685;84;21164;-65
2021/08/17 15:51:50;;;;;;;28.85;15.32;;;;;;;30.30;40.56;100683.77;1711495;84;21351;-66
2021/08/17 15:54:23;;;;;;;28.07;15.03;;;;;;;30.21;40.71;100683.95;1711569;84;21799;-65
2021/08/17 15:56:57;;;;;;;26.80;14.43;;;;;;;30.13;40.71;100685.22;1710949;84;22236;-64
2021/08/17 15:59:30;;;;;;;25.32;14.80;;;;;;;30.05;41.15;100684.31;1710256;84;21169;-66
2021/08/17 16:02:04;;;;;;;28.05;14.85;;;;;;;29.96;41.39;100684.48;1710692;84;21732;-66
2021/08/17 16:04:37;;;;;;;33.58;14.90;;;;;;;29.88;41.73;100684.92;1711906;84;21213;-64
2021/08/17 16:07:10;;;;;;;29.37;14.87;;;;;;;29.79;42.24;100685.91;1713323;84;21271;-63
2021/08/17 16:09:43;;;;;;;;;;;;;;;29.69;42.82;100684.39;1714653;84;21479;-65
2021/08/17 16:12:16;;;;;;;19.23;12.13;;;;;;;29.59;42.51;100682.91;1711789;84;20263;-65
2021/08/17 16:14:50;;;;;;;11.50;8.68;;;;;;;29.49;42.49;100685.50;1687757;83;21252;-64
2021/08/17 16:17:22;;;;;;;;;;;;;;;29.39;42.56;100684.01;1685138;83;21329;-65
2021/08/17 16:19:56;;;;;;;19.07;9.38;;;;;;;29.30;42.90;100680.11;1708549;82;20180;-64
2021/08/17 16:22:29;;;;;;;20.55;11.15;;;;;;;29.17;43.73;100677.72;1736325;82;21494;-65
2021/08/17 16:25:02;;;;;;;39.42;13.78;;;;;;;29.07;43.77;100677.55;1714539;82;21716;-64
2021/08/17 16:27:38;;;;;;;38.25;13.75;;;;;;;28.97;45.34;100679.56;1714389;82;21217;-64
2021/08/17 16:30:12;;;;;;;35.63;14.68;;;;;;;28.85;46.50;100680.18;1723227;82;21276;-67
2021/08/17 16:32:47;;;;;;;39.25;14.55;;;;;;;28.73;46.89;100682.17;1724220;83;21471;-65
2021/08/17 16:35:22;;;;;;;36.60;15.05;;;;;;;28.60;47.52;100683.30;1721501;83;21321;-65
2021/08/17 16:37:55;;;;;;;38.05;15.78;;;;;;;28.48;48.48;100684.38;1721998;82;22165;-65
2021/08/17 16:40:29;;;;;;;158.10;21.50;;;;;;;28.34;49.14;100687.92;1721070;82;21149;-66
2021/08/17 16:43:03;;;;;;;171.40;19.00;;;;;;;28.19;50.07;100687.63;1724475;82;21292;-65
2021/08/17 16:45:36;;;;;;;74.47;11.60;;;;;;;28.06;50.71;100687.11;1743525;81;21267;-65
2021/08/17 16:48:10;;;;;;;34.05;9.95;;;;;;;27.91;49.74;100697.00;1742522;81;21698;-64
2021/08/17 16:50:44;;;;;;;59.77;10.90;;;;;;;27.76;49.15;100692.13;1742819;82;21200;-64
2021/08/17 16:53:18;;;;;;;48.42;10.98;;;;;;;27.63;49.00;100697.78;1746746;80;21157;-65
2021/08/17 16:55:52;;;;;;;51.73;11.22;;;;;;;27.53;49.66;100704.80;1771971;81;21299;-64
2021/08/17 16:58:25;;;;;;;74.75;11.97;;;;;;;27.39;49.87;100698.31;1769042;81;21276;-66
2021/08/17 17:00:59;;;;;;;66.12;10.93;;;;;;;27.30;50.52;100700.22;1768705;81;21311;-65
2021/08/17 17:03:32;;;;;;;61.33;10.50;;;;;;;27.19;52.00;100702.39;1767712;81;21351;-65
2021/08/17 17:06:08;;;;;;;46.60;10.13;;;;;;;27.07;52.34;100698.36;1769747;81;21260;-65
2021/08/17 17:08:42;;;;;;;60.95;9.85;;;;;;;26.96;53.23;100696.49;1747747;81;21263;-65
2021/08/17 17:11:18;;;;;;;53.90;8.53;;;;;;;26.72;54.48;100698.27;1710698;84;21177;-66
2021/08/17 17:13:52;;;;;;;40.85;9.58;;;;;;;26.72;54.48;100698.27;1723467;82;21278;-65
2021/08/17 17:16:26;;;;;;;59.42;10.30;;;;;;;26.63;55.01;100706.37;1741903;82;21153;-65
2021/08/17 17:18:58;;;;;;;;;;;;;;;26.54;55.81;100708.27;1737755;82;21332;-64
2021/08/17 17:21:32;;;;;;;62.23;9.40;;;;;;;26.43;56.32;100709.06;1722934;83;20174;-65
2021/08/17 17:24:06;;;;;;;51.25;9.95;;;;;;;26.30;56.53;100711.40;1721875;82;21196;-64
2021/08/17 17:26:43;;;;;;;75.17;11.55;;;;;;;26.20;57.29;100706.30;1703428;83;21240;-65
2021/08/17 17:29:18;;;;;;;74.10;10.78;;;;;;;25.99;58.42;100705.69;1721879;82;21288;-65
2021/08/17 17:31:52;;;;;;;60.90;11.05;;;;;;;25.99;58.42;100705.69;1722876;81;21351;-64
2021/08/17 17:34:25;;;;;;;66.50;11.65;;;;;;;25.91;58.96;100706.53;1705730;83;21284;-64
2021/08/17 17:36:58;;;;;;;51.23;11.93;;;;;;;25.82;58.29;100709.19;1728633;83;21260;-65
2021/08/17 17:39:33;;;;;;;47.30;13.55;;;;;;;25.74;57.33;100709.00;1725905;82;21268;-67
2021/08/17 17:42:06;;;;;;;51.58;13.80;;;;;;;25.68;56.73;100711.73;1727882;83;21312;-64
2021/08/17 17:44:39;;;;;;;;;;;;;;;25.62;56.51;100713.98;1732992;83;21205;-64
2021/08/17 17:47:12;;;;;;;43.95;11.78;;;;;;;25.56;56.64;100710.31;1728426;82;20174;-65
2021/08/17 17:49:45;;;;;;;39.05;11.57;;;;;;;25.47;56.68;100717.02;1731847;82;21289;-64
2021/08/17 17:52:18;;;;;;;40.83;12.35;;;;;;;25.41;56.86;100711.19;1730369;82;21150;-65
2021/08/17 17:54:51;;;;;;;38.60;11.15;;;;;;;25.37;57.02;100716.67;1728529;83;21343;-64
2021/08/17 17:57:24;;;;;;;31.93;11.70;;;;;;;25.29;57.20;100710.27;1729311;82;21315;-63
2021/08/17 17:59:59;;;;;;;57.33;21.70;;;;;;;25.24;57.40;100714.13;1732447;82;21352;-63
2021/08/17 18:02:38;;;;;;;51.28;21.12;;;;;;;25.19;58.22;100713.45;1729367;82;21231;-65
2021/08/17 18:05:12;;;;;;;42.53;19.30;;;;;;;25.14;59.21;100710.61;1730720;83;21217;-63
2021/08/17 18:07:45;;;;;;;76.17;26.90;;;;;;;25.08;59.71;100712.81;1733466;83;21248;-63
2021/08/17 18:10:19;;;;;;;37.90;18.35;;;;;;;25.02;60.53;100713.70;1733174;83;21288;-64
2021/08/17 18:12:52;;;;;;;56.80;22.50;;;;;;;24.96;60.78;100713.22;1732298;83;21351;-65
2021/08/17 18:15:26;;;;;;;62.73;24.60;;;;;;;24.93;61.22;100713.67;1731814;82;21160;-64
2021/08/17 18:18:03;;;;;;;37.83;19.32;;;;;;;24.86;62.36;100706.21;1730850;82;21266;-63
2021/08/17 18:20:37;;;;;;;60.28;22.65;;;;;;;24.82;62.75;100709.00;1696613;83;21284;-63
2021/08/17 18:23:11;;;;;;;94.32;25.88;;;;;;;24.76;62.75;100700.48;1699825;82;21276;-64
2021/08/17 18:25:45;;;;;;;122.98;20.30;;;;;;;24.72;64.14;100700.59;1732188;82;21217;-63
2021/08/17 18:28:18;;;;;;;;;;;;;;;24.65;65.06;100705.18;1734796;82;21154;-64
2021/08/17 18:30:51;;;;;;;74.55;15.60;;;;;;;24.55;65.54;100700.30;1732512;82;20205;-68
2021/08/17 18:33:25;;;;;;;48.52;11.95;;;;;;;24.47;65.93;100703.26;1734959;82;21308;-64
2021/08/17 18:35:58;;;;;;;36.13;10.85;;;;;;;24.43;65.69;100703.91;1731783;82;21754;-63
2021/08/17 18:38:32;;;;;;;35.95;10.15;;;;;;;24.39;65.14;100702.16;1731203;82;21303;-64
2021/08/17 18:41:06;;;;;;;29.02;8.95;;;;;;;24.34;64.68;100701.98;1711879;83;21157;-64
2021/08/17 18:43:40;;;;;;;33.70;10.08;;;;;;;24.31;64.08;100706.95;1732758;82;21774;-64
2021/08/17 18:46:13;;;;;;;;;;;;;;;24.26;63.88;100702.25;1734792;83;22058;-65
2021/08/17 18:48:46;;;;;;;52.03;15.15;;;;;;;24.23;63.75;100701.84;1733369;82;20178;-65
2021/08/17 18:51:21;;;;;;;55.33;21.15;;;;;;;24.18;63.92;100703.00;1730316;82;22206;-65
2021/08/17 18:53:55;;;;;;;46.37;17.10;;;;;;;24.14;64.82;100710.65;1730165;82;21193;-64
2021/08/17 18:56:28;;;;;;;36.85;13.40;;;;;;;24.07;65.71;100709.31;1730316;83;21292;-64
2021/08/17 18:59:02;;;;;;;22.35;10.95;;;;;;;24.02;66.17;100712.31;1732810;82;21349;-62
2021/08/17 19:01:37;;;;;;;31.60;10.30;;;;;;;23.96;66.64;100715.31;1731025;83;21354;-63
2021/08/17 19:04:10;;;;;;;17.80;9.13;;;;;;;23.89;67.02;100714.52;1730692;82;21570;-64
2021/08/17 19:06:43;;;;;;;16.95;9.40;;;;;;;23.83;66.94;100715.37;1730233;82;21339;-63